createdAt,value
2019-04-03T00:00:57.354Z,4.97
2019-04-03T00:04:02.697Z,5.17
2019-04-03T00:07:07.820Z,5.60
2019-04-03T00:10:12.209Z,5.20
2019-04-03T00:13:16.606Z,4.90
2019-04-03T00:16:21.249Z,4.87
2019-04-03T00:19:25.544Z,5.27
2019-04-03T00:22:30.044Z,5.37
2019-04-03T00:25:36.045Z,4.43
2019-04-03T00:28:40.276Z,4.70
2019-04-03T00:31:44.542Z,4.80
2019-04-03T00:34:48.943Z,4.63
2019-04-03T00:37:53.885Z,4.30
2019-04-03T00:40:58.379Z,4.67
2019-04-03T00:44:03.322Z,4.47
2019-04-03T00:47:07.684Z,4.57
2019-04-03T00:50:12.106Z,4.80
2019-04-03T00:53:16.411Z,4.63
2019-04-03T00:56:20.746Z,4.67
2019-04-03T00:59:26.383Z,4.20
2019-04-03T01:02:31.138Z,4.20
2019-04-03T01:05:35.530Z,4.97
2019-04-03T01:08:39.838Z,4.37
2019-04-03T01:11:44.588Z,4.23
2019-04-03T01:14:49.324Z,4.10
2019-04-03T01:17:54.036Z,3.90
2019-04-03T01:20:58.745Z,4.13
2019-04-03T01:24:03.072Z,4.03
2019-04-03T01:27:07.547Z,4.70
2019-04-03T01:30:14.020Z,4.10
2019-04-03T01:33:18.240Z,4.70
2019-04-03T01:36:22.930Z,5.00
2019-04-03T01:39:27.365Z,5.40
2019-04-03T01:42:32.084Z,5.53
2019-04-03T01:45:36.411Z,5.50
2019-04-03T01:48:41.259Z,5.60
2019-04-03T01:51:45.624Z,6.30
2019-04-03T01:54:50.182Z,6.30
2019-04-03T01:57:54.516Z,5.43
2019-04-03T02:00:59.023Z,5.67
2019-04-03T02:04:03.404Z,7.10
2019-04-03T02:07:08.043Z,6.90
2019-04-03T02:10:17.840Z,6.13
2019-04-03T02:13:22.599Z,6.73
2019-04-03T02:16:27.493Z,7.60
2019-04-03T02:19:31.842Z,7.03
2019-04-03T02:22:36.196Z,6.57
2019-04-03T02:25:40.567Z,7.00
2019-04-03T02:28:45.521Z,7.70
2019-04-03T02:31:52.715Z,8.33
2019-04-03T02:34:55.892Z,7.20
2019-04-03T02:38:00.588Z,7.53
2019-04-03T02:41:05.534Z,7.57
2019-04-03T02:44:10.198Z,7.83
2019-04-03T02:47:15.204Z,8.60
2019-04-03T02:50:25.521Z,7.80
2019-04-03T02:53:31.329Z,8.63
2019-04-03T02:56:39.667Z,8.43
2019-04-03T02:59:44.375Z,8.10
2019-04-03T03:02:48.878Z,7.97
2019-04-03T03:05:53.242Z,7.53
2019-04-03T03:08:58.562Z,8.30
2019-04-03T03:12:03.868Z,8.57
2019-04-03T03:15:11.193Z,8.40
2019-04-03T03:18:14.765Z,7.47
2019-04-03T03:21:20.508Z,7.40
2019-04-03T03:24:28.398Z,7.23
2019-04-03T03:27:31.165Z,6.80
2019-04-03T03:30:45.506Z,6.63
2019-04-03T03:33:43.595Z,6.53
2019-04-03T03:36:48.997Z,5.83
2019-04-03T03:39:53.797Z,5.43
2019-04-03T03:43:05.123Z,5.17
2019-04-03T03:46:11.381Z,4.77
2019-04-03T03:49:17.817Z,4.83
2019-04-03T03:52:22.324Z,4.70
2019-04-03T03:55:26.979Z,4.57
2019-04-03T03:58:31.603Z,5.03
2019-04-03T04:01:36.154Z,4.70
2019-04-03T04:04:41.275Z,4.00
2019-04-03T04:07:45.822Z,4.70
2019-04-03T04:10:52.299Z,4.70
2019-04-03T04:13:56.815Z,4.80
2019-04-03T04:17:01.830Z,5.13
2019-04-03T04:20:07.456Z,5.00
2019-04-03T04:23:12.071Z,4.73
2019-04-03T04:26:17.069Z,4.47
2019-04-03T04:29:24.231Z,4.60
2019-04-03T04:32:28.555Z,4.70
2019-04-03T04:35:32.884Z,5.17
2019-04-03T04:38:37.456Z,4.73
2019-04-03T04:41:42.551Z,5.70
2019-04-03T04:44:47.314Z,5.70
2019-04-03T04:47:51.615Z,5.60
2019-04-03T04:50:56.167Z,5.10
2019-04-03T04:54:01.458Z,5.57
2019-04-03T04:57:08.265Z,5.40
2019-04-03T05:00:15.114Z,4.87
2019-04-03T05:03:21.132Z,5.23
2019-04-03T05:06:28.606Z,5.07
2019-04-03T05:09:34.348Z,5.33
2019-04-03T05:12:45.312Z,4.83
2019-04-03T05:15:49.643Z,5.00
2019-04-03T05:18:54.029Z,5.00
2019-04-03T05:21:58.334Z,4.60
2019-04-03T05:25:02.848Z,4.43
2019-04-03T05:28:07.356Z,4.80
2019-04-03T05:31:12.579Z,4.97
2019-04-03T05:34:17.234Z,4.40
2019-04-03T05:37:21.551Z,5.60
2019-04-03T05:40:26.565Z,5.10
2019-04-03T05:43:31.512Z,5.60
2019-04-03T05:46:37.620Z,5.50
2019-04-03T05:49:42.394Z,5.33
2019-04-03T05:52:46.984Z,6.20
2019-04-03T05:55:51.413Z,6.70
2019-04-03T05:59:03.702Z,6.80
2019-04-03T06:02:15.083Z,5.67
2019-04-03T06:05:14.846Z,5.37
2019-04-03T06:08:19.958Z,4.97
2019-04-03T06:11:25.021Z,5.80
2019-04-03T06:14:29.714Z,5.80
2019-04-03T06:17:34.054Z,5.10
2019-04-03T06:20:38.572Z,5.10
2019-04-03T06:23:42.988Z,4.73
2019-04-03T06:26:47.714Z,5.50
2019-04-03T06:29:54.763Z,5.60
2019-04-03T06:33:00.907Z,5.87
2019-04-03T06:36:04.598Z,5.70
2019-04-03T06:39:09.763Z,5.97
2019-04-03T06:42:14.364Z,5.47
2019-04-03T06:45:19.062Z,5.57
2019-04-03T06:48:23.424Z,5.60
2019-04-03T06:51:27.855Z,5.80
2019-04-03T06:54:32.406Z,11.10
2019-04-03T06:57:39.077Z,7.87
2019-04-03T07:00:42.757Z,8.07
2019-04-03T07:03:47.467Z,9.23
2019-04-03T07:06:55.203Z,6.87
2019-04-03T07:09:58.478Z,6.97
2019-04-03T07:13:02.883Z,5.80
2019-04-03T07:16:07.584Z,6.60
2019-04-03T07:19:12.334Z,5.50
2019-04-03T07:22:35.092Z,6.57
2019-04-03T07:25:39.307Z,5.80
2019-04-03T07:28:43.639Z,6.27
2019-04-03T07:31:48.419Z,6.00
2019-04-03T07:34:53.439Z,5.83
2019-04-03T07:37:58.087Z,5.47
2019-04-03T07:41:02.929Z,4.93
2019-04-03T07:44:07.349Z,5.47
2019-04-03T07:47:11.944Z,5.77
2019-04-03T07:50:17.245Z,5.70
2019-04-03T07:53:21.871Z,6.90
2019-04-03T07:56:26.989Z,7.10
2019-04-03T07:59:33.477Z,7.13
2019-04-03T08:02:37.681Z,8.07
2019-04-03T08:05:42.070Z,7.83
2019-04-03T08:08:46.515Z,8.00
2019-04-03T08:11:51.295Z,6.97
2019-04-03T08:14:55.782Z,7.37
2019-04-03T08:18:00.377Z,7.13
2019-04-03T08:21:04.841Z,6.73
2019-04-03T08:24:09.509Z,6.17
2019-04-03T08:27:14.049Z,6.53
2019-04-03T08:30:18.542Z,6.97
2019-04-03T08:33:26.599Z,8.07
2019-04-03T08:36:28.894Z,7.17
2019-04-03T08:39:33.906Z,8.40
2019-04-03T08:42:40.672Z,9.10
2019-04-03T08:45:45.618Z,8.17
2019-04-03T08:48:49.943Z,7.97
2019-04-03T08:51:54.699Z,8.43
2019-04-03T08:54:59.642Z,9.43
2019-04-03T08:58:04.031Z,10.47
2019-04-03T09:01:10.718Z,9.60
2019-04-03T09:04:16.752Z,9.93
2019-04-03T09:07:24.516Z,9.93
2019-04-03T09:10:31.609Z,9.53
2019-04-03T09:13:35.319Z,8.20
2019-04-03T09:16:40.097Z,8.00
2019-04-03T09:19:44.874Z,7.77
2019-04-03T09:22:49.248Z,7.40
2019-04-03T09:25:53.554Z,7.80
2019-04-03T09:28:58.150Z,8.00
2019-04-03T09:32:03.082Z,8.40
2019-04-03T09:35:08.159Z,7.40
2019-04-03T09:38:13.040Z,8.73
2019-04-03T09:41:19.208Z,7.90
2019-04-03T09:44:25.465Z,9.47
2019-04-03T09:47:29.808Z,7.80
2019-04-03T09:50:34.216Z,7.33
2019-04-03T09:53:38.802Z,7.07
2019-04-03T09:56:57.210Z,7.30
2019-04-03T09:59:49.196Z,6.83
2019-04-03T10:02:53.532Z,7.50
2019-04-03T10:05:58.192Z,7.30
2019-04-03T10:09:05.870Z,7.03
2019-04-03T10:12:11.068Z,6.93
2019-04-03T10:15:18.341Z,6.80
2019-04-03T10:18:22.921Z,7.27
2019-04-03T10:21:27.556Z,7.03
2019-04-03T10:24:32.253Z,6.87
2019-04-03T10:27:37.101Z,6.70
2019-04-03T10:30:41.880Z,6.40
2019-04-03T10:33:46.875Z,7.20
2019-04-03T10:36:51.140Z,6.80
2019-04-03T10:39:55.524Z,6.80
2019-04-03T10:43:01.023Z,7.00
2019-04-03T10:46:05.794Z,7.00
2019-04-03T10:49:10.624Z,7.30
2019-04-03T10:52:15.208Z,6.93
2019-04-03T10:55:19.620Z,7.30
2019-04-03T10:58:23.948Z,7.40
2019-04-03T11:01:28.896Z,7.20
2019-04-03T11:04:33.600Z,6.97
2019-04-03T11:07:37.999Z,7.03
2019-04-03T11:10:42.397Z,6.33
2019-04-03T11:13:46.732Z,6.50
2019-04-03T11:16:51.069Z,6.17
2019-04-03T11:19:57.423Z,6.83
2019-04-03T11:23:06.800Z,8.13
2019-04-03T11:26:08.435Z,8.97
2019-04-03T11:29:12.873Z,8.43
2019-04-03T11:32:17.192Z,8.60
2019-04-03T11:35:22.412Z,8.03
2019-04-03T11:38:29.267Z,9.47
2019-04-03T11:41:32.939Z,7.73
2019-04-03T11:44:37.540Z,7.60
2019-04-03T11:47:43.244Z,9.10
2019-04-03T11:50:47.916Z,9.07
2019-04-03T11:53:52.218Z,8.97
2019-04-03T11:56:57.179Z,8.07
2019-04-03T12:00:04.376Z,8.03
2019-04-03T12:03:10.827Z,7.57
2019-04-03T12:06:16.368Z,7.57
2019-04-03T12:09:20.851Z,7.17
2019-04-03T12:12:25.452Z,7.10
2019-04-03T12:15:30.066Z,8.03
2019-04-03T12:18:37.506Z,8.10
2019-04-03T12:21:42.335Z,7.70
2019-04-03T12:24:47.361Z,7.87
2019-04-03T12:27:51.798Z,9.17
2019-04-03T12:30:57.083Z,8.57
2019-04-03T12:34:05.433Z,7.27
2019-04-03T12:37:07.504Z,7.30
2019-04-03T12:40:12.806Z,6.90
2019-04-03T12:43:17.075Z,6.20
2019-04-03T12:46:37.335Z,7.13
2019-04-03T12:49:41.797Z,6.53
2019-04-03T12:52:47.146Z,7.03
2019-04-03T12:55:51.436Z,7.20
2019-04-03T12:58:56.444Z,6.17
2019-04-03T13:02:00.692Z,6.50
2019-04-03T13:05:07.267Z,5.77
2019-04-03T13:08:12.533Z,8.13
2019-04-03T13:11:19.119Z,7.07
2019-04-03T13:14:26.442Z,7.43
2019-04-03T13:17:30.085Z,8.10
2019-04-03T13:20:36.650Z,7.50
2019-04-03T13:23:40.968Z,7.43
2019-04-03T13:26:45.286Z,7.07
2019-04-03T13:29:51.397Z,7.13
2019-04-03T13:33:05.084Z,6.17
2019-04-03T13:36:16.915Z,6.13
2019-04-03T13:39:21.442Z,6.80
2019-04-03T13:42:25.789Z,6.63
2019-04-03T13:45:32.705Z,7.90
2019-04-03T13:48:37.699Z,7.80
2019-04-03T13:51:48.995Z,7.17
2019-04-03T13:55:02.357Z,7.33
2019-04-03T13:58:07.090Z,7.10
2019-04-03T14:01:27.654Z,8.60
2019-04-03T14:04:39.338Z,9.50
2019-04-03T14:07:46.748Z,9.40
2019-04-03T14:10:51.933Z,8.97
2019-04-03T14:13:56.598Z,8.83
2019-04-03T14:17:00.985Z,8.20
2019-04-03T14:20:13.029Z,7.20
2019-04-03T14:23:18.035Z,8.20
2019-04-03T14:26:22.482Z,7.90
2019-04-03T14:29:30.866Z,7.50
2019-04-03T14:32:38.408Z,7.20
2019-04-03T14:35:50.504Z,8.97
2019-04-03T14:38:49.109Z,9.00
2019-04-03T14:41:54.759Z,8.73
2019-04-03T14:44:59.478Z,8.23
2019-04-03T14:48:04.020Z,8.10
2019-04-03T14:51:10.928Z,6.93
2019-04-03T14:54:14.533Z,7.93
2019-04-03T14:57:22.464Z,8.63
2019-04-03T15:00:30.036Z,8.60
2019-04-03T15:03:33.525Z,8.53
2019-04-03T15:06:37.058Z,8.30
2019-04-03T15:09:41.382Z,8.67
2019-04-03T15:12:45.798Z,9.53
2019-04-03T15:15:50.116Z,9.47
2019-04-03T15:18:54.746Z,8.73
2019-04-03T15:22:01.716Z,8.13
2019-04-03T15:25:05.345Z,8.13
2019-04-03T15:28:09.664Z,7.77
2019-04-03T15:31:14.934Z,7.20
2019-04-03T15:34:19.424Z,6.97
2019-04-03T15:37:24.223Z,7.20
2019-04-03T15:40:28.572Z,7.23
2019-04-03T15:43:32.897Z,7.77
2019-04-03T15:46:37.332Z,8.00
2019-04-03T15:49:41.995Z,9.73
2019-04-03T15:52:49.293Z,9.13
2019-04-03T15:55:52.865Z,9.30
2019-04-03T15:58:58.449Z,8.57
2019-04-03T16:02:03.663Z,10.63
2019-04-03T16:05:08.449Z,9.93
2019-04-03T16:08:13.586Z,9.10
2019-04-03T16:11:18.377Z,8.50
2019-04-03T16:14:22.770Z,9.43
2019-04-03T16:17:27.070Z,9.17
2019-04-03T16:20:31.413Z,9.33
2019-04-03T16:23:36.873Z,9.27
2019-04-03T16:26:41.815Z,9.07
2019-04-03T16:29:46.931Z,9.50
2019-04-03T16:32:51.932Z,10.03
2019-04-03T16:35:56.452Z,9.60
2019-04-03T16:39:01.979Z,8.63
2019-04-03T16:42:07.282Z,8.43
2019-04-03T16:45:12.598Z,9.63
2019-04-03T16:48:18.136Z,9.77
2019-04-03T16:51:22.981Z,9.70
2019-04-03T16:54:29.099Z,9.47
2019-04-03T16:57:33.387Z,9.53
2019-04-03T17:00:38.072Z,10.17
2019-04-03T17:03:43.767Z,10.77
2019-04-03T17:06:51.164Z,11.73
2019-04-03T17:09:55.558Z,10.50
2019-04-03T17:13:00.092Z,9.27
2019-04-03T17:16:04.899Z,10.03
2019-04-03T17:19:10.661Z,10.40
2019-04-03T17:22:14.985Z,11.57
2019-04-03T17:25:19.594Z,10.80
2019-04-03T17:28:26.284Z,8.87
2019-04-03T17:31:30.167Z,8.90
2019-04-03T17:34:37.102Z,9.33
2019-04-03T17:37:40.441Z,9.17
2019-04-03T17:40:44.691Z,10.50
2019-04-03T17:43:49.010Z,9.30
2019-04-03T17:46:53.358Z,10.03
2019-04-03T17:49:59.189Z,9.10
2019-04-03T17:53:06.316Z,8.80
2019-04-03T17:56:12.390Z,9.07
2019-04-03T17:59:18.086Z,8.20
2019-04-03T18:02:22.798Z,8.70
2019-04-03T18:05:28.393Z,11.03
2019-04-03T18:08:33.196Z,10.90
2019-04-03T18:11:38.363Z,10.57
2019-04-03T18:14:42.690Z,9.67
2019-04-03T18:17:47.032Z,9.23
2019-04-03T18:20:51.337Z,9.63
2019-04-03T18:23:55.709Z,10.00
2019-04-03T18:27:02.213Z,9.40
2019-04-03T18:30:11.787Z,10.23
2019-04-03T18:33:17.057Z,11.40
2019-04-03T18:36:21.960Z,9.67
2019-04-03T18:39:27.418Z,9.23
2019-04-03T18:42:31.823Z,9.67
2019-04-03T18:45:37.944Z,10.10
2019-04-03T18:48:52.803Z,11.30
2019-04-03T18:51:48.410Z,11.03
2019-04-03T18:54:52.798Z,9.60
2019-04-03T18:57:57.191Z,9.13
2019-04-03T19:01:01.777Z,9.90
2019-04-03T19:04:07.221Z,9.50
2019-04-03T19:07:15.228Z,9.43
2019-04-03T19:10:18.838Z,9.43
2019-04-03T19:13:23.245Z,10.40
2019-04-03T19:16:29.674Z,9.90
2019-04-03T19:19:34.122Z,9.40
2019-04-03T19:22:38.528Z,8.23
2019-04-03T19:25:42.852Z,8.67
2019-04-03T19:28:48.489Z,7.77
2019-04-03T19:31:53.075Z,8.40
2019-04-03T19:34:58.022Z,8.10
2019-04-03T19:38:04.589Z,8.17
2019-04-03T19:41:11.568Z,7.83
2019-04-03T19:44:16.176Z,8.93
2019-04-03T19:47:22.831Z,9.67
2019-04-03T19:50:27.630Z,9.57
2019-04-03T19:53:35.584Z,9.60
2019-04-03T19:56:38.823Z,9.60
2019-04-03T19:59:43.183Z,8.23
2019-04-03T20:02:47.984Z,9.53
2019-04-03T20:05:54.947Z,8.77
2019-04-03T20:08:59.022Z,10.67
2019-04-03T20:12:06.821Z,10.00
2019-04-03T20:15:12.601Z,9.50
2019-04-03T20:18:16.982Z,9.37
2019-04-03T20:21:21.696Z,9.10
2019-04-03T20:24:26.115Z,9.97
2019-04-03T20:27:30.523Z,9.23
2019-04-03T20:30:35.103Z,8.30
2019-04-03T20:33:42.147Z,8.40
2019-04-03T20:36:45.920Z,8.50
2019-04-03T20:39:50.647Z,7.17
2019-04-03T20:42:54.961Z,7.37
2019-04-03T20:46:00.690Z,7.30
2019-04-03T20:49:05.009Z,6.93
2019-04-03T20:52:11.537Z,6.47
2019-04-03T20:55:15.742Z,6.90
2019-04-03T20:58:20.065Z,7.77
2019-04-03T21:01:24.391Z,7.00
2019-04-03T21:04:28.838Z,6.97
2019-04-03T21:07:33.967Z,6.93
2019-04-03T21:10:38.695Z,6.67
2019-04-03T21:13:43.678Z,7.03
2019-04-03T21:16:48.464Z,6.57
2019-04-03T21:19:53.309Z,7.73
2019-04-03T21:23:02.926Z,6.70
2019-04-03T21:26:07.484Z,6.70
2019-04-03T21:29:12.972Z,7.77
2019-04-03T21:32:17.692Z,5.97
2019-04-03T21:35:22.031Z,6.80
2019-04-03T21:38:26.699Z,6.50
2019-04-03T21:41:31.466Z,5.87
2019-04-03T21:44:37.472Z,6.77
2019-04-03T21:47:42.735Z,7.40
2019-04-03T21:50:47.912Z,7.33
2019-04-03T21:53:55.831Z,7.50
2019-04-03T21:56:59.725Z,6.70
2019-04-03T22:00:06.215Z,6.53
2019-04-03T22:03:11.537Z,7.13
2019-04-03T22:06:16.032Z,6.90
2019-04-03T22:09:20.433Z,6.77
2019-04-03T22:12:25.092Z,6.60
2019-04-03T22:15:29.409Z,7.57
2019-04-03T22:18:34.837Z,7.80
2019-04-03T22:21:39.566Z,8.57
2019-04-03T22:24:46.027Z,7.23
2019-04-03T22:27:50.731Z,8.33
2019-04-03T22:30:55.077Z,8.53
2019-04-03T22:33:59.811Z,7.73
2019-04-03T22:37:04.626Z,7.87
2019-04-03T22:40:10.704Z,8.77
2019-04-03T22:43:16.204Z,8.90
2019-04-03T22:46:22.100Z,8.43
2019-04-03T22:49:27.005Z,8.53
2019-04-03T22:52:31.412Z,9.17
2019-04-03T22:55:35.740Z,8.93
2019-04-03T22:58:40.732Z,7.70
2019-04-03T23:01:45.094Z,7.40
2019-04-03T23:04:49.511Z,8.10
2019-04-03T23:07:53.889Z,9.07
2019-04-03T23:11:01.318Z,8.30
2019-04-03T23:14:07.448Z,8.03
2019-04-03T23:17:13.769Z,7.83
2019-04-03T23:20:20.073Z,7.20
2019-04-03T23:23:27.581Z,7.70
2019-04-03T23:26:32.263Z,7.40
2019-04-03T23:29:37.249Z,6.80
2019-04-03T23:32:41.577Z,6.93
2019-04-03T23:35:47.141Z,6.13
2019-04-03T23:38:52.161Z,6.13
2019-04-03T23:41:56.540Z,5.63
2019-04-03T23:45:00.926Z,5.30
2019-04-03T23:48:05.177Z,5.40
2019-04-03T23:51:10.722Z,5.63
2019-04-03T23:54:15.639Z,4.67
2019-04-03T23:57:20.268Z,5.70
